Time;durP1;ratioP1;P1;durP2;ratioP2;P2;SDS_P1;SDS_P2;PMS_P1;PMS_P2;Temp;Humidity;BMP_temperature;BMP_pressure;BME280_temperature;BME280_humidity;BME280_pressure;Samples;Min_cycle;Max_cycle;Signal;HPM_P1;HPM_P2
2021/12/10 00:00:08;;;;;;;23.63;21.17;;;;;;;2.35;96.46;91895.13;5091697;28;20239;-79
2021/12/10 00:02:35;;;;;;;28.43;23.93;;;;;;;2.49;95.78;91903.97;5091449;28;20203;-79
2021/12/10 00:05:04;;;;;;;26.63;22.20;;;;;;;2.46;95.89;91907.81;5090227;28;20289;-79
2021/12/10 00:07:29;;;;;;;26.13;20.57;;;;;;;2.26;95.71;91881.13;5091361;28;20200;-79
2021/12/10 00:10:00;;;;;;;22.40;19.97;;;;;;;2.49;95.85;91896.25;5091236;28;20794;-79
2021/12/10 00:12:34;;;;;;;22.40;18.50;;;;;;;2.55;94.98;91896.00;5091345;28;20217;-81
2021/12/10 00:15:02;;;;;;;22.10;19.67;;;;;;;2.54;95.12;91893.69;5075166;28;20235;-79
2021/12/10 00:17:27;;;;;;;20.30;17.80;;;;;;;2.51;95.49;91894.19;5072848;28;20189;-79
2021/12/10 00:19:56;;;;;;;18.60;16.90;;;;;;;2.45;95.25;91874.56;5071595;28;20235;-80
2021/12/10 00:22:38;;;;;;;16.80;15.20;;;;;;;2.49;95.57;91888.53;5070664;28;20219;-79
2021/12/10 00:25:12;;;;;;;16.10;14.67;;;;;;;2.51;96.33;91894.19;5078585;28;20235;-79
2021/12/10 00:27:38;;;;;;;17.73;16.10;;;;;;;2.48;95.73;91872.28;5081135;28;20187;-79
2021/12/10 00:30:09;;;;;;;21.87;16.97;;;;;;;2.62;95.68;91896.59;5071706;28;20212;-79
2021/12/10 00:32:43;;;;;;;17.00;15.50;;;;;;;2.85;94.61;91890.28;5070928;28;20189;-79
2021/12/10 00:35:20;;;;;;;17.33;15.73;;;;;;;2.75;95.31;91880.72;5070369;28;20247;-80
2021/12/10 00:37:45;;;;;;;20.67;17.93;;;;;;;2.82;95.35;91875.31;5070639;28;21398;-79
2021/12/10 00:40:16;;;;;;;21.53;17.27;;;;;;;2.65;98.34;91879.84;5071260;28;20224;-79
2021/12/10 00:42:41;;;;;;;22.07;19.87;;;;;;;2.86;99.20;91876.38;5070674;28;20198;-79
2021/12/10 00:45:11;;;;;;;19.23;17.43;;;;;;;2.89;97.74;91881.03;5071484;28;20251;-79
2021/12/10 00:47:37;;;;;;;22.47;19.97;;;;;;;2.88;96.79;91887.22;5072621;28;20189;-79
2021/12/10 00:50:06;;;;;;;18.90;17.20;;;;;;;2.78;95.97;91863.97;5069695;28;20309;-79
2021/12/10 00:52:32;;;;;;;30.07;24.33;;;;;;;2.85;96.45;91878.19;5069434;28;20209;-79
2021/12/10 00:54:57;;;;;;;19.13;17.37;;;;;;;2.86;95.50;91874.56;5069886;28;20232;-79
2021/12/10 00:57:23;;;;;;;18.40;16.10;;;;;;;2.83;95.06;91866.56;5067529;28;20213;-79
2021/12/10 00:59:49;;;;;;;17.90;16.10;;;;;;;2.76;95.49;91840.25;5070932;28;20248;-79
2021/12/10 01:02:18;;;;;;;16.07;14.77;;;;;;;3.07;94.77;91862.56;5070076;28;20879;-79
2021/12/10 01:04:48;;;;;;;16.57;14.97;;;;;;;2.90;95.27;91854.22;5082078;28;20315;-79
2021/12/10 01:07:18;;;;;;;17.37;15.77;;;;;;;2.86;95.27;91866.84;5089343;28;20191;-79
2021/12/10 01:09:49;;;;;;;16.53;15.10;;;;;;;2.96;95.85;91871.28;5074770;28;20217;-79
2021/12/10 01:12:40;;;;;;;17.13;15.27;;;;;;;2.97;95.50;91865.88;5069591;28;20185;-79
2021/12/10 01:28:51;;;;;;;15.90;14.40;;;;;;;3.29;94.81;91855.44;5088395;28;20224;-79
2021/12/10 01:31:17;;;;;;;15.50;14.07;;;;;;;3.09;95.07;91835.50;5122737;28;20188;-79
2021/12/10 01:33:46;;;;;;;15.73;14.43;;;;;;;3.20;94.95;91854.38;5086974;28;20248;-79
2021/12/10 01:36:12;;;;;;;15.10;13.80;;;;;;;3.21;94.43;91850.75;5089109;28;20208;-79
2021/12/10 01:38:40;;;;;;;15.13;13.77;;;;;;;3.20;95.04;91847.41;5089566;28;20224;-79
2021/12/10 01:41:11;;;;;;;14.30;13.20;;;;;;;3.02;94.10;91818.69;5089362;28;20196;-78
2021/12/10 01:43:40;;;;;;;15.93;14.40;;;;;;;3.22;94.49;91840.19;5082925;28;20683;-79
2021/12/10 01:46:19;;;;;;;16.30;14.70;;;;;;;3.13;95.74;91835.75;5068202;28;20197;-79
2021/12/10 01:48:54;;;;;;;17.53;15.73;;;;;;;3.24;95.32;91858.78;5070382;28;20232;-79
2021/12/10 01:51:27;;;;;;;15.83;14.30;;;;;;;3.28;95.18;91861.63;5069953;28;20220;-79
2021/12/10 01:53:56;;;;;;;16.23;14.70;;;;;;;3.33;95.01;91853.13;5069454;28;20714;-79
2021/12/10 01:56:29;;;;;;;16.50;15.07;;;;;;;3.25;95.42;91829.38;5069407;28;20200;-78
2021/12/10 01:58:56;;;;;;;15.30;13.73;;;;;;;3.25;94.35;91818.28;5068266;28;20227;-79
2021/12/10 02:01:28;;;;;;;15.87;14.23;;;;;;;3.39;95.53;91811.63;5067975;28;20200;-80
2021/12/10 02:03:54;;;;;;;16.90;15.20;;;;;;;3.33;95.33;91815.22;5067028;28;20295;-79
2021/12/10 02:06:21;;;;;;;14.73;13.43;;;;;;;3.37;94.77;91807.72;5069738;28;20264;-79
2021/12/10 02:08:47;;;;;;;15.43;13.93;;;;;;;3.41;94.24;91817.28;5068161;28;20228;-80
2021/12/10 02:11:14;;;;;;;14.87;13.63;;;;;;;3.42;95.02;91813.69;5067977;28;20190;-81
2021/12/10 02:13:40;;;;;;;16.93;15.50;;;;;;;3.55;95.92;91812.44;5068902;28;20221;-80
2021/12/10 02:16:07;;;;;;;14.93;13.73;;;;;;;3.53;95.49;91809.31;5070937;28;20193;-79
2021/12/10 02:18:33;;;;;;;17.00;15.47;;;;;;;3.46;95.66;91796.66;5073027;28;20228;-80
2021/12/10 02:21:02;;;;;;;16.40;15.03;;;;;;;3.37;95.38;91794.84;5090059;28;20219;-80
2021/12/10 02:23:34;;;;;;;16.47;15.07;;;;;;;3.23;95.13;91779.09;5089230;28;20236;-79
2021/12/10 02:26:01;;;;;;;19.13;17.23;;;;;;;3.29;95.22;91802.06;5088329;28;20188;-80
2021/12/10 02:28:28;;;;;;;16.90;15.13;;;;;;;3.27;95.06;91793.00;5089054;28;20305;-79
2021/12/10 02:30:54;;;;;;;17.40;15.60;;;;;;;3.24;95.22;91788.34;5090404;28;20223;-79
2021/12/10 02:33:20;;;;;;;16.60;14.90;;;;;;;3.24;95.47;91783.97;5086631;28;20264;-79
2021/12/10 02:35:46;;;;;;;16.13;14.63;;;;;;;3.32;94.63;91798.19;5070796;28;20185;-79
2021/12/10 02:38:16;;;;;;;15.77;14.57;;;;;;;3.43;95.16;91801.56;5074956;28;20935;-79
2021/12/10 02:40:42;;;;;;;16.30;14.97;;;;;;;3.43;95.15;91793.81;5092921;28;20191;-79
2021/12/10 02:43:10;;;;;;;15.07;13.63;;;;;;;3.43;95.03;91804.13;5092085;28;20184;-80
2021/12/10 02:45:38;;;;;;;15.87;14.70;;;;;;;3.18;95.16;91773.91;5073501;28;20205;-79
2021/12/10 02:48:05;;;;;;;15.73;14.23;;;;;;;3.43;95.03;91817.03;5073432;28;20189;-80
2021/12/10 02:50:31;;;;;;;15.40;13.90;;;;;;;3.40;94.57;91823.47;5070933;28;20204;-80
2021/12/10 02:52:58;;;;;;;13.93;12.87;;;;;;;3.33;94.33;91815.22;5072278;28;20213;-79
2021/12/10 02:55:24;;;;;;;13.77;12.63;;;;;;;3.58;94.96;91828.16;5070027;28;20830;-80
2021/12/10 02:57:54;;;;;;;13.77;12.73;;;;;;;3.34;95.39;91788.41;5073578;28;20270;-80
2021/12/10 03:00:25;;;;;;;14.83;13.70;;;;;;;3.54;96.83;91806.50;5072756;28;20221;-80
2021/12/10 03:02:51;;;;;;;13.73;12.63;;;;;;;3.73;96.54;91801.63;5073212;28;20208;-81
2021/12/10 03:05:17;;;;;;;13.40;12.40;;;;;;;3.61;95.87;91809.59;5072433;28;20221;-81
2021/12/10 03:07:43;;;;;;;22.43;17.10;;;;;;;3.64;96.84;91810.91;5073772;28;20224;-80
2021/12/10 03:10:13;;;;;;;16.10;14.57;;;;;;;3.47;96.75;91779.41;5089237;28;20212;-80
2021/12/10 03:12:40;;;;;;;15.23;14.13;;;;;;;3.44;97.92;91806.47;5093808;28;20224;-80
2021/12/10 03:15:07;;;;;;;13.33;12.33;;;;;;;3.67;98.02;91810.38;5092089;28;20225;-80
2021/12/10 03:17:34;;;;;;;13.00;12.20;;;;;;;3.63;96.59;91783.56;5091778;28;20196;-81
2021/12/10 03:20:03;;;;;;;12.60;11.77;;;;;;;3.74;98.55;91806.53;5076839;28;20295;-81
2021/12/10 03:22:30;;;;;;;12.27;11.47;;;;;;;3.86;98.87;91807.03;5072263;28;20225;-80
2021/12/10 03:24:58;;;;;;;12.80;11.83;;;;;;;3.93;99.21;91809.38;5071609;28;20235;-80
2021/12/10 03:27:24;;;;;;;13.77;12.67;;;;;;;3.93;98.50;91799.81;5071630;28;20193;-80
2021/12/10 03:29:50;;;;;;;14.80;13.20;;;;;;;4.02;98.24;91810.41;5071935;28;20230;-80
2021/12/10 03:32:20;;;;;;;14.13;12.77;;;;;;;3.99;97.08;91809.13;5073460;28;20197;-81
2021/12/10 03:34:45;;;;;;;13.00;11.93;;;;;;;3.91;96.99;91804.47;5071080;28;20228;-81
2021/12/10 03:37:12;;;;;;;13.40;12.43;;;;;;;3.85;96.50;91797.75;5072252;28;20185;-80
2021/12/10 03:39:37;;;;;;;13.20;12.13;;;;;;;3.96;96.39;91801.88;5071760;28;20225;-81
2021/12/10 03:42:06;;;;;;;14.33;13.37;;;;;;;3.99;95.99;91806.53;5072274;28;20227;-80
2021/12/10 03:44:32;;;;;;;14.27;13.07;;;;;;;3.93;95.70;91805.00;5067918;28;20232;-81
2021/12/10 03:47:00;;;;;;;13.67;12.60;;;;;;;3.95;99.10;91817.63;5070964;28;20189;-81
2021/12/10 03:49:26;;;;;;;14.03;13.13;;;;;;;3.97;100.00;91828.50;5069460;28;20233;-81
2021/12/10 03:51:52;;;;;;;14.03;13.00;;;;;;;3.97;99.72;91834.41;5072267;28;20211;-82
2021/12/10 03:54:18;;;;;;;13.27;12.37;;;;;;;4.00;99.83;91825.41;5071680;28;20236;-81
2021/12/10 03:56:47;;;;;;;12.13;11.07;;;;;;;3.86;99.24;91799.28;5070053;28;20205;-81
2021/12/10 03:59:17;;;;;;;13.83;12.80;;;;;;;4.08;99.13;91819.69;5071432;28;20252;-81
2021/12/10 04:01:46;;;;;;;13.83;12.57;;;;;;;4.14;98.11;91826.44;5071038;28;20185;-81
2021/12/10 04:04:17;;;;;;;12.53;11.73;;;;;;;4.11;98.30;91825.13;5081517;28;20225;-82
2021/12/10 04:06:43;;;;;;;13.63;12.73;;;;;;;4.11;99.01;91811.47;5091576;28;20259;-81
2021/12/10 04:09:08;;;;;;;12.73;11.63;;;;;;;4.06;98.34;91801.88;5082408;28;20248;-81
2021/12/10 04:11:35;;;;;;;13.30;12.27;;;;;;;4.11;97.98;91814.03;5071354;28;20197;-81
2021/12/10 04:14:00;;;;;;;13.10;12.10;;;;;;;3.84;98.04;91801.38;5071559;28;20235;-81
2021/12/10 04:16:28;;;;;;;13.93;12.80;;;;;;;4.11;97.40;91832.88;5069293;28;20201;-80
2021/12/10 04:18:57;;;;;;;12.67;11.57;;;;;;;4.07;97.91;91831.84;5071127;28;20225;-81
2021/12/10 04:21:23;;;;;;;13.03;12.10;;;;;;;4.27;98.83;91837.00;5072449;28;20178;-81
2021/12/10 04:23:50;;;;;;;14.33;13.10;;;;;;;4.23;98.36;91830.81;5077798;28;20250;-81
2021/12/10 04:26:19;;;;;;;13.00;12.20;;;;;;;4.18;98.29;91837.78;5091663;28;20230;-81
2021/12/10 04:28:45;;;;;;;13.30;12.40;;;;;;;4.24;97.42;91826.41;5089445;28;20228;-81
2021/12/10 04:31:13;;;;;;;14.33;13.17;;;;;;;4.23;97.35;91846.31;5091773;28;20192;-80
2021/12/10 04:33:39;;;;;;;15.73;14.57;;;;;;;3.94;97.66;91806.53;5091021;28;20228;-81
2021/12/10 04:36:05;;;;;;;13.23;12.03;;;;;;;4.02;98.34;91837.00;5091239;28;20219;-82
2021/12/10 04:38:33;;;;;;;13.13;12.23;;;;;;;4.11;96.80;91848.38;5088706;28;20232;-82
2021/12/10 04:41:01;;;;;;;12.87;11.97;;;;;;;3.98;95.83;91827.44;5071240;28;20189;-81
2021/12/10 04:43:32;;;;;;;12.33;11.53;;;;;;;3.81;95.99;91804.47;5070861;28;20224;-79
2021/12/10 04:45:59;;;;;;;13.07;11.90;;;;;;;4.10;95.47;91840.88;5067380;28;20189;-77
2021/12/10 04:48:29;;;;;;;12.50;11.73;;;;;;;3.81;95.35;91794.16;5068968;28;20248;-79
2021/12/10 04:50:55;;;;;;;12.30;11.20;;;;;;;3.86;96.16;91790.78;5066512;28;20205;-78
2021/12/10 04:53:22;;;;;;;12.30;11.37;;;;;;;4.08;96.83;91833.38;5067712;28;20230;-78
2021/12/10 04:55:48;;;;;;;13.20;12.07;;;;;;;4.02;96.78;91815.56;5067170;28;20199;-78
2021/12/10 04:58:14;;;;;;;12.67;11.97;;;;;;;4.15;95.61;91838.31;5068604;28;20254;-79
2021/12/10 05:00:43;;;;;;;13.90;12.90;;;;;;;4.08;96.88;91841.13;5087510;28;20248;-79
2021/12/10 05:03:10;;;;;;;14.20;13.00;;;;;;;4.14;97.44;91847.09;5101732;28;20193;-78
2021/12/10 05:05:37;;;;;;;14.57;13.50;;;;;;;4.11;97.17;91832.13;5088691;28;20266;-79
2021/12/10 05:08:05;;;;;;;14.13;12.93;;;;;;;3.75;100.00;91839.03;5086030;28;20197;-77
2021/12/10 05:10:31;;;;;;;13.43;12.30;;;;;;;3.89;100.00;91845.25;5088389;28;20188;-75
2021/12/10 05:12:57;;;;;;;14.10;13.20;;;;;;;4.07;100.00;91837.00;5087918;28;20225;-78
2021/12/10 05:15:25;;;;;;;14.50;13.50;;;;;;;4.16;99.69;91845.78;5087559;28;20319;-75
2021/12/10 05:17:52;;;;;;;13.67;12.67;;;;;;;3.80;98.90;91787.41;5087986;28;20185;-76
2021/12/10 05:20:23;;;;;;;20.07;17.90;;;;;;;4.04;98.64;91832.38;5087477;28;20221;-75
2021/12/10 05:22:50;;;;;;;48.37;30.33;;;;;;;4.06;99.03;91825.13;5087586;28;20690;-77
2021/12/10 05:25:16;;;;;;;55.80;35.47;;;;;;;4.14;99.33;91841.94;5100897;28;20281;-77
2021/12/10 05:27:41;;;;;;;87.00;52.03;;;;;;;4.01;98.79;91840.63;5067955;28;20248;-78
2021/12/10 05:30:11;;;;;;;70.63;43.63;;;;;;;4.06;99.04;91853.53;5066104;28;20750;-77
2021/12/10 05:32:36;;;;;;;113.97;63.50;;;;;;;3.81;98.54;91827.72;5067681;28;20193;-80
2021/12/10 05:35:04;;;;;;;109.93;60.47;;;;;;;4.01;98.18;91858.72;5067209;28;20233;-83
2021/12/10 05:37:29;;;;;;;81.27;46.53;;;;;;;3.84;96.54;91837.50;5067660;28;20200;-86
2021/12/10 05:39:55;;;;;;;61.10;39.67;;;;;;;4.01;97.32;91850.19;5065472;28;20217;-86
2021/12/10 05:42:20;;;;;;;23.60;21.20;;;;;;;3.76;97.21;91840.59;5066829;28;20185;-86
2021/12/10 05:44:46;;;;;;;20.23;18.20;;;;;;;3.64;98.09;91827.16;5065534;28;20225;-86
2021/12/10 05:47:11;;;;;;;21.70;19.47;;;;;;;3.83;97.04;91841.09;5069019;28;20190;-85
2021/12/10 05:49:38;;;;;;;19.87;17.77;;;;;;;3.89;97.53;91834.91;5078153;28;20221;-80
2021/12/10 05:52:04;;;;;;;18.67;16.90;;;;;;;3.80;97.07;91835.72;5085909;28;20210;-85
2021/12/10 05:54:30;;;;;;;19.33;17.07;;;;;;;3.82;97.74;91841.38;5089849;28;20236;-82
2021/12/10 05:56:56;;;;;;;19.90;17.40;;;;;;;3.95;97.21;91835.72;5087755;28;20278;-78
2021/12/10 05:59:21;;;;;;;18.23;16.43;;;;;;;3.71;97.61;91801.88;5087210;28;20220;-79
2021/12/10 06:01:47;;;;;;;20.03;18.10;;;;;;;3.88;97.54;91827.44;5087916;28;20278;-80
2021/12/10 06:04:16;;;;;;;16.37;14.80;;;;;;;3.39;96.75;91767.78;5086921;28;20244;-84
2021/12/10 06:06:42;;;;;;;18.73;16.63;;;;;;;3.58;96.84;91812.69;5087752;28;20218;-84
2021/12/10 06:09:09;;;;;;;18.43;16.97;;;;;;;3.58;96.94;91781.72;5087669;28;20244;-87
2021/12/10 06:11:35;;;;;;;19.07;17.00;;;;;;;3.98;96.40;91812.75;5087382;28;20181;-81
2021/12/10 06:14:01;;;;;;;21.77;19.50;;;;;;;4.15;95.62;91822.81;5084634;28;20235;-80
2021/12/10 06:16:26;;;;;;;23.27;20.80;;;;;;;3.98;96.28;91814.53;5088315;28;20204;-78
2021/12/10 06:18:53;;;;;;;21.57;19.40;;;;;;;3.97;97.53;91821.50;5088457;28;20228;-77
2021/12/10 06:21:19;;;;;;;21.57;19.23;;;;;;;4.05;98.99;91827.97;5088772;28;20212;-78
2021/12/10 06:23:45;;;;;;;21.27;19.07;;;;;;;4.19;98.46;91823.81;5085982;28;20323;-80
2021/12/10 06:26:10;;;;;;;21.77;19.57;;;;;;;4.24;97.83;91822.03;5086530;28;20189;-83
2021/12/10 06:28:36;;;;;;;19.67;17.97;;;;;;;4.22;96.84;91813.75;5089000;28;20255;-81
2021/12/10 06:31:04;;;;;;;23.03;18.17;;;;;;;4.18;96.99;91820.50;5089593;28;20192;-80
2021/12/10 06:33:29;;;;;;;22.80;17.20;;;;;;;4.23;96.87;91842.97;5086471;28;20227;-83
2021/12/10 06:35:58;;;;;;;20.37;14.73;;;;;;;4.01;96.48;91790.78;5087890;28;20910;-84
2021/12/10 06:38:23;;;;;;;18.00;15.67;;;;;;;4.22;96.38;91821.50;5088278;28;20236;-83
2021/12/10 06:40:50;;;;;;;18.70;16.80;;;;;;;4.26;96.32;91803.69;5090325;28;20187;-80
2021/12/10 06:43:17;;;;;;;18.27;16.00;;;;;;;4.19;96.57;91821.25;5086416;28;20199;-81
2021/12/10 06:45:44;;;;;;;15.47;13.90;;;;;;;4.26;96.82;91814.81;5087562;28;20292;-80
2021/12/10 06:48:12;;;;;;;18.30;14.80;;;;;;;4.40;96.94;91826.16;5086724;28;20200;-82
2021/12/10 06:50:47;;;;;;;16.63;15.13;;;;;;;4.37;97.31;91826.66;5088805;28;20195;-80
2021/12/10 06:53:13;;;;;;;16.53;15.23;;;;;;;4.52;97.07;91815.53;5087248;28;20212;-77
2021/12/10 06:55:39;;;;;;;19.07;17.30;;;;;;;4.54;98.28;91790.22;5088410;28;20253;-79
2021/12/10 06:58:07;;;;;;;18.07;16.33;;;;;;;4.58;97.34;91761.00;5086769;28;20192;-78
2021/12/10 07:00:42;;;;;;;21.53;18.93;;;;;;;4.91;96.58;91832.78;5068854;28;20197;-79
2021/12/10 07:03:13;;;;;;;37.40;25.27;;;;;;;4.78;95.58;91830.75;5069085;28;20199;-78
2021/12/10 07:05:39;;;;;;;44.10;26.67;;;;;;;4.80;95.51;91826.09;5067272;28;20889;-78
2021/12/10 07:08:05;;;;;;;27.43;22.77;;;;;;;4.77;95.01;91823.25;5068224;28;20300;-78
2021/12/10 07:10:32;;;;;;;32.47;21.20;;;;;;;4.86;95.18;91827.63;5069298;28;20242;-79
2021/12/10 07:12:58;;;;;;;25.10;22.70;;;;;;;4.92;94.63;91829.16;5068715;28;20288;-79
2021/12/10 07:15:23;;;;;;;22.50;20.23;;;;;;;4.40;94.37;91727.19;5067898;28;20225;-79
2021/12/10 07:17:51;;;;;;;21.30;19.10;;;;;;;5.11;94.05;91831.94;5068486;28;20209;-78
2021/12/10 07:20:20;;;;;;;19.77;18.07;;;;;;;5.06;93.51;91828.59;5068789;28;20251;-78
2021/12/10 07:22:46;;;;;;;19.67;17.87;;;;;;;5.13;93.16;91836.84;5070444;28;20268;-79
2021/12/10 07:25:12;;;;;;;25.77;23.03;;;;;;;5.00;93.53;91829.66;5072214;28;20225;-79
2021/12/10 07:27:37;;;;;;;22.87;20.33;;;;;;;5.12;94.65;91819.78;5070897;28;20201;-79
2021/12/10 07:30:05;;;;;;;22.83;20.43;;;;;;;5.21;93.71;91825.97;5070859;28;20228;-79
2021/12/10 07:32:31;;;;;;;23.77;20.77;;;;;;;5.19;93.51;91828.81;5071138;28;20256;-78
2021/12/10 07:34:56;;;;;;;20.17;18.30;;;;;;;5.14;93.76;91839.16;5087001;28;20224;-79
2021/12/10 07:37:22;;;;;;;21.63;19.60;;;;;;;5.23;94.15;91836.81;5092508;28;20197;-79
2021/12/10 07:39:48;;;;;;;19.63;17.93;;;;;;;5.21;93.71;91811.22;5090798;28;20280;-79
2021/12/10 07:42:13;;;;;;;20.00;18.10;;;;;;;5.05;93.23;91798.59;5091686;28;20205;-79
2021/12/10 07:44:39;;;;;;;20.17;16.47;;;;;;;5.28;93.89;91841.94;5077695;28;20234;-79
2021/12/10 07:47:11;;;;;;;17.00;15.70;;;;;;;5.19;94.07;91802.16;5071779;28;20201;-79
2021/12/10 07:49:37;;;;;;;16.17;14.83;;;;;;;5.29;94.70;91828.78;5071613;28;20248;-79
2021/12/10 07:52:07;;;;;;;17.40;15.57;;;;;;;5.19;94.01;91807.31;5071190;28;20190;-79
2021/12/10 07:54:33;;;;;;;17.63;16.40;;;;;;;5.45;93.71;91817.31;5072475;28;20288;-79
2021/12/10 07:56:58;;;;;;;15.37;14.23;;;;;;;5.56;93.99;91829.16;5072036;28;20201;-79
2021/12/10 07:59:24;;;;;;;14.27;13.17;;;;;;;5.35;93.71;91811.41;5068076;28;20244;-79
2021/12/10 08:01:50;;;;;;;17.37;15.93;;;;;;;5.39;94.07;91812.41;5072145;28;20191;-79
2021/12/10 08:04:16;;;;;;;16.17;15.07;;;;;;;5.53;93.83;91815.97;5069843;28;20233;-79
2021/12/10 08:06:41;;;;;;;16.47;14.97;;;;;;;5.61;93.53;91836.13;5068980;28;20200;-79
2021/12/10 08:09:08;;;;;;;15.27;13.97;;;;;;;5.63;93.35;91821.09;5071142;28;20245;-79
2021/12/10 08:11:35;;;;;;;15.50;14.40;;;;;;;5.74;92.83;91831.16;5070053;28;20221;-80
2021/12/10 08:14:00;;;;;;;17.70;16.20;;;;;;;5.82;92.50;91833.16;5070889;28;20233;-79
2021/12/10 08:16:26;;;;;;;17.93;16.23;;;;;;;5.81;93.96;91841.97;5070627;28;20195;-80
2021/12/10 08:18:53;;;;;;;16.07;14.73;;;;;;;6.24;91.98;91837.84;5068961;28;20225;-80
2021/12/10 08:21:19;;;;;;;14.67;13.53;;;;;;;6.45;90.84;91810.69;5071836;28;20190;-79
2021/12/10 08:23:45;;;;;;;15.60;14.27;;;;;;;6.72;90.23;91841.31;5068264;28;20233;-79
2021/12/10 08:26:12;;;;;;;16.03;14.80;;;;;;;6.76;89.95;91840.50;5070245;28;20221;-79
2021/12/10 08:28:39;;;;;;;16.43;15.13;;;;;;;6.75;90.24;91835.56;5071946;28;20240;-80
2021/12/10 08:31:05;;;;;;;15.00;13.83;;;;;;;6.31;92.37;91820.13;5070892;28;20185;-80
2021/12/10 08:33:31;;;;;;;17.43;16.00;;;;;;;6.23;95.47;91831.09;5069955;28;20308;-79
2021/12/10 08:36:01;;;;;;;17.37;15.97;;;;;;;6.60;93.44;91840.91;5071343;28;20186;-79
2021/12/10 08:38:28;;;;;;;15.60;14.07;;;;;;;6.57;92.46;91812.94;5070202;28;20222;-80
2021/12/10 08:41:16;;;;;;;25.43;22.87;;;;;;;6.68;92.44;91833.28;5070582;28;20211;-79
2021/12/10 08:43:43;;;;;;;23.87;21.67;;;;;;;6.66;92.14;91819.84;5069950;28;20241;-79
2021/12/10 08:46:12;;;;;;;20.00;18.23;;;;;;;6.45;92.82;91821.06;5070971;28;20185;-79
2021/12/10 08:48:38;;;;;;;19.83;17.93;;;;;;;6.55;92.83;91826.94;5070225;28;20218;-80
2021/12/10 08:51:09;;;;;;;18.77;17.07;;;;;;;6.42;92.70;91824.19;5070298;28;20249;-80
2021/12/10 08:53:34;;;;;;;18.00;16.53;;;;;;;6.35;92.94;91828.94;5068593;28;20232;-79
2021/12/10 08:56:00;;;;;;;16.00;14.90;;;;;;;6.49;92.65;91815.06;5070445;28;20268;-80
2021/12/10 08:58:26;;;;;;;16.60;14.87;;;;;;;6.64;91.72;91829.72;5068582;28;20239;-79
2021/12/10 09:01:00;;;;;;;17.47;15.77;;;;;;;6.53;93.15;91812.69;5071574;28;20170;-79
2021/12/10 09:03:26;;;;;;;20.50;18.30;;;;;;;6.44;94.63;91811.75;5070292;28;20213;-79
2021/12/10 09:05:52;;;;;;;18.63;16.87;;;;;;;6.71;92.52;91813.84;5068810;28;20210;-79
2021/12/10 09:08:18;;;;;;;23.43;21.00;;;;;;;6.73;89.82;91801.34;5070040;28;20193;-80
2021/12/10 09:10:45;;;;;;;20.97;19.00;;;;;;;6.55;90.69;91808.78;5100981;28;20401;-80
2021/12/10 09:13:14;;;;;;;21.57;19.33;;;;;;;6.61;91.35;91825.09;5069555;28;20288;-80
2021/12/10 09:15:46;;;;;;;25.90;23.33;;;;;;;6.69;89.53;91764.84;5070110;28;20189;-80
2021/12/10 09:18:13;;;;;;;23.80;20.47;;;;;;;6.60;90.66;91786.47;5066448;28;20196;-80
2021/12/10 09:20:42;;;;;;;33.23;29.63;;;;;;;5.71;96.76;91784.28;5070755;28;21051;-80
2021/12/10 09:23:11;;;;;;;26.10;23.43;;;;;;;5.91;97.57;91804.91;5070114;28;20617;-79
2021/12/10 09:25:38;;;;;;;106.20;34.77;;;;;;;6.19;96.49;91801.59;5067946;28;20232;-80
2021/12/10 09:28:04;;;;;;;223.80;46.47;;;;;;;5.60;96.92;91793.94;5069007;28;20201;-79
2021/12/10 09:30:32;;;;;;;449.03;56.17;;;;;;;6.00;97.10;91803.28;5070927;28;20181;-79
2021/12/10 09:32:59;;;;;;;219.47;48.07;;;;;;;6.02;96.46;91796.03;5069050;28;20214;-80
2021/12/10 09:35:29;;;;;;;360.90;53.47;;;;;;;5.14;100.00;91776.31;5069875;28;20225;-79
2021/12/10 09:37:55;;;;;;;349.53;51.23;;;;;;;5.47;100.00;91741.97;5069794;28;20189;-80
2021/12/10 09:40:25;;;;;;;335.87;55.83;;;;;;;5.75;98.55;91759.41;5088976;28;20244;-80
2021/12/10 09:42:51;;;;;;;386.40;57.33;;;;;;;5.88;96.36;91753.66;5090167;28;20189;-80
2021/12/10 09:45:21;;;;;;;572.40;73.77;;;;;;;5.52;99.04;91793.72;5089008;28;20226;-80
2021/12/10 09:47:47;;;;;;;595.03;78.33;;;;;;;5.96;97.33;91791.91;5089693;28;20210;-80
2021/12/10 09:50:15;;;;;;;622.67;72.63;;;;;;;5.39;97.58;91791.72;5089133;28;20220;-80
2021/12/10 09:52:42;;;;;;;617.87;79.67;;;;;;;5.76;97.58;91786.84;5090560;28;20185;-80
2021/12/10 09:55:12;;;;;;;526.90;74.13;;;;;;;5.60;97.37;91752.53;5088938;28;20228;-81
2021/12/10 09:57:39;;;;;;;172.57;51.10;;;;;;;5.85;95.98;91780.09;5089331;28;20204;-80
2021/12/10 10:00:33;;;;;;;212.47;53.60;;;;;;;5.89;95.18;91789.63;5088200;28;20250;-80
2021/12/10 10:02:59;;;;;;;172.07;46.53;;;;;;;5.89;93.81;91765.53;5090152;28;20192;-80
2021/12/10 10:05:29;;;;;;;163.03;50.83;;;;;;;5.90;93.94;91752.31;5089664;28;20285;-79
2021/12/10 10:07:57;;;;;;;111.60;47.87;;;;;;;5.90;94.17;91743.78;5090143;28;20185;-80
2021/12/10 10:10:24;;;;;;;110.60;46.10;;;;;;;5.74;94.25;91719.03;5069363;28;20655;-80
2021/12/10 10:12:55;;;;;;;80.97;47.37;;;;;;;5.83;94.85;91749.28;5069776;28;20237;-80
2021/12/10 10:15:26;;;;;;;69.23;44.07;;;;;;;5.71;95.13;91722.91;5068130;28;20225;-80
2021/12/10 10:17:53;;;;;;;61.00;41.20;;;;;;;5.81;95.47;91743.56;5068468;28;20193;-80
2021/12/10 10:20:20;;;;;;;46.80;36.07;;;;;;;6.26;94.18;91751.00;5101737;28;20321;-80
2021/12/10 10:22:46;;;;;;;43.27;32.00;;;;;;;6.25;93.30;91743.47;5069983;28;20252;-80
2021/12/10 10:25:13;;;;;;;31.40;26.13;;;;;;;6.37;92.10;91736.09;5068558;28;20236;-80
2021/12/10 10:27:41;;;;;;;25.83;22.93;;;;;;;6.52;92.25;91749.69;5066690;28;20264;-80
2021/12/10 10:30:39;;;;;;;29.80;24.80;;;;;;;6.20;94.53;91731.34;5068603;28;20229;-80
2021/12/10 10:33:08;;;;;;;25.47;22.77;;;;;;;6.37;95.46;91718.75;5065118;28;20201;-80
2021/12/10 10:35:49;;;;;;;27.37;24.00;;;;;;;6.69;93.08;91722.56;5088911;28;20260;-80
2021/12/10 10:38:19;;;;;;;26.90;23.97;;;;;;;6.55;93.58;91731.00;5087688;28;20240;-80
2021/12/10 10:40:49;;;;;;;24.60;22.20;;;;;;;6.50;93.26;91701.78;5090333;28;20208;-80
2021/12/10 10:43:14;;;;;;;26.07;23.30;;;;;;;6.58;93.56;91721.91;5089058;28;20215;-80
2021/12/10 10:45:44;;;;;;;25.83;23.13;;;;;;;6.42;94.16;91717.91;5088410;28;20181;-80
2021/12/10 10:48:11;;;;;;;27.07;23.17;;;;;;;6.66;94.13;91710.16;5088795;28;20193;-80
2021/12/10 10:50:45;;;;;;;23.33;20.93;;;;;;;7.06;92.55;91726.03;5089240;28;20212;-80
2021/12/10 10:53:14;;;;;;;28.03;22.97;;;;;;;7.26;90.33;91723.16;5089319;28;20200;-80
2021/12/10 10:55:50;;;;;;;24.27;21.83;;;;;;;6.99;90.73;91730.00;5089027;28;20204;-80
2021/12/10 10:58:17;;;;;;;24.70;22.27;;;;;;;6.80;91.80;91711.81;5090445;28;20199;-80
2021/12/10 11:00:58;;;;;;;24.43;21.97;;;;;;;6.90;91.28;91723.88;5093668;28;20197;-81
2021/12/10 11:03:35;;;;;;;27.70;24.10;;;;;;;6.83;90.68;91715.66;5092657;28;20268;-80
2021/12/10 11:06:01;;;;;;;30.67;25.33;;;;;;;6.35;92.23;91704.53;5091582;28;20196;-80
2021/12/10 11:08:38;;;;;;;27.63;23.47;;;;;;;6.91;91.17;91736.56;5091468;28;20239;-80
2021/12/10 11:11:15;;;;;;;28.33;24.77;;;;;;;6.91;90.68;91736.56;5092752;28;20196;-80
2021/12/10 11:13:44;;;;;;;28.70;23.33;;;;;;;6.66;90.87;91697.97;5092270;28;20323;-80
2021/12/10 11:16:14;;;;;;;31.47;26.07;;;;;;;6.84;90.96;91710.19;5093149;28;20254;-80
2021/12/10 11:18:51;;;;;;;29.87;25.77;;;;;;;6.59;90.65;91707.88;5090230;28;20255;-80
2021/12/10 11:21:33;;;;;;;27.20;24.20;;;;;;;6.80;90.47;91716.22;5092690;28;20215;-80
2021/12/10 11:24:12;;;;;;;24.60;22.07;;;;;;;6.84;90.90;91715.38;5093867;28;20359;-80
2021/12/10 11:27:05;;;;;;;22.23;19.87;;;;;;;6.74;91.36;91709.56;5091706;28;20185;-80
2021/12/10 11:29:55;;;;;;;20.10;18.13;;;;;;;6.98;90.23;91699.91;5089729;28;20220;-80
2021/12/10 11:32:23;;;;;;;22.50;20.23;;;;;;;6.41;94.38;91696.41;5093978;28;20189;-80
2021/12/10 11:34:52;;;;;;;24.03;20.40;;;;;;;6.59;93.92;91692.34;5090767;28;20303;-80
2021/12/10 11:37:41;;;;;;;30.27;25.87;;;;;;;6.69;94.56;91670.69;5092035;28;20191;-80
2021/12/10 11:40:31;;;;;;;33.97;28.60;;;;;;;6.94;91.91;91681.53;5074842;28;20248;-80
2021/12/10 11:43:01;;;;;;;33.17;27.43;;;;;;;7.09;89.24;91678.75;5072138;28;20220;-80